createdAt,value
2017-03-31T00:00:18.050Z,0
2017-03-31T00:01:17.633Z,0
2017-03-31T00:02:17.643Z,0
2017-03-31T00:03:17.694Z,0
2017-03-31T00:04:19.117Z,0
2017-03-31T00:05:18.367Z,0
2017-03-31T00:06:17.659Z,0
2017-03-31T00:07:18.030Z,0
2017-03-31T00:08:18.049Z,0
2017-03-31T00:09:17.998Z,0
2017-03-31T00:10:17.739Z,0
2017-03-31T00:11:18.002Z,0
2017-03-31T00:12:18.012Z,0
2017-03-31T00:13:17.755Z,0
2017-03-31T00:14:18.025Z,0
2017-03-31T00:15:19.076Z,0
2017-03-31T00:16:18.143Z,0
2017-03-31T00:17:17.415Z,0
2017-03-31T00:18:18.058Z,0
2017-03-31T00:19:17.940Z,0
2017-03-31T00:20:18.113Z,0
2017-03-31T00:21:18.264Z,0
2017-03-31T00:22:17.500Z,0
2017-03-31T00:23:17.867Z,0
2017-03-31T00:24:19.625Z,0
2017-03-31T00:25:17.826Z,0
2017-03-31T00:26:18.935Z,0
2017-03-31T00:27:17.841Z,0
2017-03-31T00:28:18.207Z,0
2017-03-31T00:29:18.211Z,0
2017-03-31T00:30:18.223Z,0
2017-03-31T00:31:17.863Z,0
2017-03-31T00:32:17.866Z,0
2017-03-31T00:33:18.192Z,0
2017-03-31T00:34:18.190Z,0
2017-03-31T00:35:19.823Z,0
2017-03-31T00:36:17.895Z,0
2017-03-31T00:37:19.102Z,0
2017-03-31T00:38:17.905Z,0
2017-03-31T00:39:18.273Z,0
2017-03-31T00:40:17.867Z,0
2017-03-31T00:41:18.344Z,0
2017-03-31T00:42:18.238Z,0
2017-03-31T00:43:17.881Z,0
2017-03-31T00:44:18.857Z,0
2017-03-31T00:45:18.220Z,0
2017-03-31T00:46:18.262Z,0
2017-03-31T00:47:18.328Z,0
2017-03-31T00:48:19.947Z,0
2017-03-31T00:49:18.075Z,0
2017-03-31T00:50:18.240Z,0
2017-03-31T00:51:18.246Z,0
2017-03-31T00:52:17.987Z,0
2017-03-31T00:53:18.302Z,0
2017-03-31T00:54:17.993Z,0
2017-03-31T00:55:18.666Z,0
2017-03-31T00:56:18.271Z,0
2017-03-31T00:57:18.337Z,0
2017-03-31T00:58:18.364Z,0
2017-03-31T00:59:18.032Z,0
2017-03-31T01:00:17.672Z,0
2017-03-31T01:01:18.401Z,0
2017-03-31T01:02:18.045Z,0
2017-03-31T01:03:18.516Z,0
2017-03-31T01:04:17.748Z,0
2017-03-31T01:05:17.753Z,0
2017-03-31T01:06:18.618Z,0
2017-03-31T01:07:18.171Z,0
2017-03-31T01:08:18.438Z,0
2017-03-31T01:09:18.447Z,0
2017-03-31T01:10:20.126Z,0
2017-03-31T01:11:18.145Z,0
2017-03-31T01:12:18.366Z,0
2017-03-31T01:13:18.058Z,0
2017-03-31T01:14:18.430Z,0
2017-03-31T01:15:18.485Z,0
2017-03-31T01:16:18.445Z,0
2017-03-31T01:17:19.143Z,0
2017-03-31T01:18:18.452Z,0
2017-03-31T01:19:18.455Z,0
2017-03-31T01:20:18.465Z,0
2017-03-31T01:21:18.524Z,0
2017-03-31T01:22:18.114Z,0
2017-03-31T01:23:18.427Z,0
2017-03-31T01:24:19.084Z,0
2017-03-31T01:25:18.279Z,0
2017-03-31T01:26:17.922Z,0
2017-03-31T01:27:18.241Z,0
2017-03-31T01:28:19.160Z,0
2017-03-31T01:29:17.842Z,0
2017-03-31T01:30:18.573Z,0
2017-03-31T01:31:18.163Z,0
2017-03-31T01:32:18.494Z,0
2017-03-31T01:34:18.231Z,0
2017-03-31T01:35:18.246Z,0
2017-03-31T01:36:18.193Z,0
2017-03-31T01:37:18.562Z,0
2017-03-31T01:38:18.303Z,0
2017-03-31T01:39:19.015Z,0
2017-03-31T01:40:18.528Z,0
2017-03-31T01:41:18.652Z,0
2017-03-31T01:42:18.544Z,0
2017-03-31T01:43:18.566Z,0
2017-03-31T01:44:18.603Z,0
2017-03-31T01:45:18.295Z,0
2017-03-31T01:46:18.403Z,0
2017-03-31T01:47:18.568Z,0
2017-03-31T01:48:19.090Z,0
2017-03-31T01:49:17.956Z,0
2017-03-31T01:50:19.041Z,0
2017-03-31T01:51:18.383Z,0
2017-03-31T01:52:18.753Z,0
2017-03-31T01:53:18.657Z,0
2017-03-31T01:54:18.349Z,0
2017-03-31T01:55:18.666Z,0
2017-03-31T01:56:18.729Z,0
2017-03-31T01:57:18.368Z,0
2017-03-31T01:58:19.138Z,0
2017-03-31T01:59:18.748Z,0
2017-03-31T02:00:18.636Z,0
2017-03-31T02:01:18.946Z,0
2017-03-31T02:02:18.352Z,0
2017-03-31T02:03:18.714Z,0
2017-03-31T02:04:18.724Z,0
2017-03-31T02:05:20.389Z,0
2017-03-31T02:06:18.421Z,0
2017-03-31T02:07:18.693Z,0
2017-03-31T02:08:18.746Z,0
2017-03-31T02:09:18.747Z,0
2017-03-31T02:10:18.538Z,0
2017-03-31T02:11:18.811Z,0
2017-03-31T02:12:20.005Z,0
2017-03-31T02:13:18.411Z,0
2017-03-31T02:14:18.776Z,0
2017-03-31T02:15:19.028Z,0
2017-03-31T02:16:20.274Z,0
2017-03-31T02:17:18.822Z,0
2017-03-31T02:18:18.488Z,0
2017-03-31T02:19:18.758Z,0
2017-03-31T02:20:18.551Z,0
2017-03-31T02:21:18.922Z,0
2017-03-31T02:22:19.776Z,0
2017-03-31T02:23:19.033Z,0
2017-03-31T02:24:18.473Z,0
2017-03-31T02:25:18.794Z,0
2017-03-31T02:26:18.536Z,0
2017-03-31T02:27:20.430Z,0
2017-03-31T02:28:18.913Z,0
2017-03-31T02:29:18.871Z,0
2017-03-31T02:30:18.875Z,0
2017-03-31T02:31:18.831Z,0
2017-03-31T02:32:18.528Z,0
2017-03-31T02:33:18.535Z,0
2017-03-31T02:34:18.783Z,0
2017-03-31T02:35:18.857Z,0
2017-03-31T02:36:18.702Z,0
2017-03-31T02:37:18.922Z,0
2017-03-31T02:38:18.556Z,0
2017-03-31T02:39:19.008Z,0
2017-03-31T02:40:18.624Z,0
2017-03-31T02:41:18.890Z,0
2017-03-31T02:42:19.544Z,0
2017-03-31T02:43:18.947Z,0
2017-03-31T02:44:19.001Z,0
2017-03-31T02:45:19.059Z,0
2017-03-31T02:46:18.969Z,0
2017-03-31T02:47:18.972Z,0
2017-03-31T02:48:18.715Z,0
2017-03-31T02:49:20.231Z,0
2017-03-31T02:50:18.989Z,0
2017-03-31T02:51:19.045Z,0
2017-03-31T02:52:18.639Z,0
2017-03-31T02:53:19.062Z,0
2017-03-31T02:54:18.750Z,0
2017-03-31T02:55:18.705Z,0
2017-03-31T02:56:18.866Z,0
2017-03-31T02:57:18.982Z,0
2017-03-31T02:58:18.675Z,0
2017-03-31T02:59:18.683Z,0
2017-03-31T03:00:20.355Z,0
2017-03-31T03:01:19.005Z,0
2017-03-31T03:02:19.058Z,0
2017-03-31T03:03:19.364Z,0
2017-03-31T03:04:19.019Z,0
2017-03-31T03:05:19.131Z,0
2017-03-31T03:06:19.036Z,0
2017-03-31T03:07:18.778Z,0
2017-03-31T03:08:19.042Z,0
2017-03-31T03:09:18.788Z,0
2017-03-31T03:10:18.893Z,0
2017-03-31T03:11:20.264Z,0
2017-03-31T03:12:19.114Z,0
2017-03-31T03:13:18.553Z,0
2017-03-31T03:14:19.126Z,0
2017-03-31T03:15:19.394Z,0
2017-03-31T03:16:19.091Z,0
2017-03-31T03:17:19.198Z,0
2017-03-31T03:18:19.199Z,0
2017-03-31T03:19:19.207Z,0
2017-03-31T03:20:19.099Z,0
2017-03-31T03:21:19.172Z,0
2017-03-31T03:22:20.204Z,0
2017-03-31T03:23:18.918Z,0
2017-03-31T03:24:19.185Z,0
2017-03-31T03:25:19.193Z,0
2017-03-31T03:26:19.150Z,0
2017-03-31T03:27:19.254Z,0
2017-03-31T03:28:19.211Z,0
2017-03-31T03:29:18.899Z,0
2017-03-31T03:30:19.172Z,0
2017-03-31T03:31:20.853Z,0
2017-03-31T03:32:19.371Z,0
2017-03-31T03:33:20.243Z,0
2017-03-31T03:34:19.243Z,0
2017-03-31T03:35:19.212Z,0
2017-03-31T03:36:19.210Z,0
2017-03-31T03:37:18.736Z,0
2017-03-31T03:38:18.645Z,0
2017-03-31T03:39:19.276Z,0
2017-03-31T03:40:20.083Z,0
2017-03-31T03:41:19.284Z,0
2017-03-31T03:42:20.736Z,0
2017-03-31T03:43:19.030Z,0
2017-03-31T03:44:20.101Z,0
2017-03-31T03:45:19.556Z,0
2017-03-31T03:46:19.300Z,0
2017-03-31T03:47:19.273Z,0
2017-03-31T03:48:19.538Z,0
2017-03-31T03:49:19.335Z,0
2017-03-31T03:50:18.761Z,0
2017-03-31T03:51:18.984Z,0
2017-03-31T03:52:18.983Z,0
2017-03-31T03:53:20.727Z,0
2017-03-31T03:54:19.456Z,0
2017-03-31T03:55:19.969Z,0
2017-03-31T03:56:19.065Z,0
2017-03-31T03:57:19.418Z,0
2017-03-31T03:58:19.066Z,0
2017-03-31T03:59:19.389Z,0
2017-03-31T04:00:19.031Z,0
2017-03-31T04:01:19.402Z,0
2017-03-31T04:02:19.355Z,0
2017-03-31T04:03:40.988Z,0
2017-03-31T04:04:19.106Z,0
2017-03-31T04:05:19.424Z,0
2017-03-31T04:06:20.279Z,0
2017-03-31T04:07:19.391Z,0
2017-03-31T04:08:19.391Z,0
2017-03-31T04:09:19.132Z,0
2017-03-31T04:10:19.451Z,0
2017-03-31T04:11:19.508Z,0
2017-03-31T04:12:19.200Z,0
2017-03-31T04:13:19.517Z,0
2017-03-31T04:14:19.474Z,0
2017-03-31T04:15:21.107Z,0
2017-03-31T04:16:19.487Z,0
2017-03-31T04:17:20.331Z,0
2017-03-31T04:18:19.445Z,0
2017-03-31T04:19:19.501Z,0
2017-03-31T04:20:19.463Z,0
2017-03-31T04:21:19.201Z,0
2017-03-31T04:22:19.215Z,0
2017-03-31T04:23:19.537Z,0
2017-03-31T04:24:19.483Z,0
2017-03-31T04:25:19.489Z,0
2017-03-31T04:26:19.547Z,0
2017-03-31T04:27:19.237Z,0
2017-03-31T04:28:20.696Z,0
2017-03-31T04:29:19.512Z,0
2017-03-31T04:30:19.242Z,0
2017-03-31T04:31:19.514Z,0
2017-03-31T04:32:19.580Z,0
2017-03-31T04:33:19.822Z,0
2017-03-31T04:34:19.228Z,0
2017-03-31T04:35:18.926Z,0
2017-03-31T04:36:19.652Z,0
2017-03-31T04:37:19.608Z,0
2017-03-31T04:38:19.669Z,0
2017-03-31T04:39:20.619Z,0
2017-03-31T04:40:19.577Z,0
2017-03-31T04:41:19.317Z,0
2017-03-31T04:42:19.427Z,0
2017-03-31T04:43:19.594Z,0
2017-03-31T04:44:19.387Z,0
2017-03-31T04:45:19.652Z,0
2017-03-31T04:46:19.612Z,4
2017-03-31T04:47:19.407Z,4
2017-03-31T04:48:19.360Z,0
2017-03-31T04:49:19.630Z,0
2017-03-31T04:50:20.793Z,4
2017-03-31T04:51:20.176Z,0
2017-03-31T04:52:19.330Z,4
2017-03-31T04:53:19.076Z,4
2017-03-31T04:54:19.394Z,4
2017-03-31T04:55:19.659Z,4
2017-03-31T04:56:19.723Z,4
2017-03-31T04:57:19.464Z,4
2017-03-31T04:58:19.369Z,8
2017-03-31T04:59:19.422Z,8
2017-03-31T05:00:19.385Z,8
2017-03-31T05:01:20.903Z,8
2017-03-31T05:02:19.444Z,8
2017-03-31T05:03:33.366Z,12
2017-03-31T05:04:20.113Z,12
2017-03-31T05:05:19.822Z,16
2017-03-31T05:06:19.463Z,16
2017-03-31T05:07:19.734Z,16
2017-03-31T05:08:19.785Z,16
2017-03-31T05:09:19.833Z,20
2017-03-31T05:10:19.750Z,20
2017-03-31T05:11:19.808Z,24
2017-03-31T05:12:21.070Z,28
2017-03-31T05:13:19.504Z,32
2017-03-31T05:14:19.821Z,36
2017-03-31T05:15:19.203Z,36
2017-03-31T05:16:19.834Z,40
2017-03-31T05:17:19.478Z,48
2017-03-31T05:18:19.845Z,52
2017-03-31T05:19:19.903Z,60
2017-03-31T05:20:19.953Z,68
2017-03-31T05:21:19.865Z,76
2017-03-31T05:22:19.870Z,88
2017-03-31T05:23:21.065Z,96
2017-03-31T05:24:19.834Z,104
2017-03-31T05:25:19.556Z,116
2017-03-31T05:26:19.889Z,128
2017-03-31T05:27:19.536Z,140
2017-03-31T05:28:20.007Z,148
2017-03-31T05:29:19.597Z,164
2017-03-31T05:30:19.919Z,176
2017-03-31T05:31:19.973Z,180
2017-03-31T05:32:21.605Z,200
2017-03-31T05:33:32.868Z,212
2017-03-31T05:34:20.940Z,228
2017-03-31T05:35:19.682Z,240
2017-03-31T05:36:19.905Z,252
2017-03-31T05:37:19.695Z,264
2017-03-31T05:38:19.599Z,276
2017-03-31T05:39:20.016Z,284
2017-03-31T05:40:19.971Z,300
2017-03-31T05:41:19.673Z,308
2017-03-31T05:42:19.624Z,320
2017-03-31T05:43:21.198Z,332
2017-03-31T05:44:20.046Z,340
2017-03-31T05:45:21.483Z,352
2017-03-31T05:46:19.745Z,368
2017-03-31T05:47:20.017Z,384
2017-03-31T05:48:19.656Z,400
2017-03-31T05:49:20.075Z,416
2017-03-31T05:50:20.028Z,428
2017-03-31T05:51:20.035Z,440
2017-03-31T05:52:20.189Z,444
2017-03-31T05:53:20.048Z,444
2017-03-31T05:54:19.794Z,444
2017-03-31T05:55:20.059Z,448
2017-03-31T05:56:21.489Z,460
2017-03-31T05:57:20.027Z,476
2017-03-31T05:58:19.717Z,492
2017-03-31T05:59:20.031Z,528
2017-03-31T06:00:20.093Z,584
2017-03-31T06:01:20.097Z,576
2017-03-31T06:02:20.091Z,576
2017-03-31T06:03:32.985Z,596
2017-03-31T06:04:20.114Z,624
2017-03-31T06:05:20.118Z,648
2017-03-31T06:06:19.819Z,660
2017-03-31T06:07:21.233Z,660
2017-03-31T06:08:19.773Z,664
2017-03-31T06:09:19.781Z,692
2017-03-31T06:10:19.785Z,712
2017-03-31T06:11:20.253Z,740
2017-03-31T06:12:19.537Z,772
2017-03-31T06:13:20.114Z,828
2017-03-31T06:14:20.173Z,884
2017-03-31T06:15:20.230Z,892
2017-03-31T06:16:20.487Z,908
2017-03-31T06:17:19.932Z,940
2017-03-31T06:18:21.294Z,976
2017-03-31T06:19:20.153Z,1000
2017-03-31T06:20:20.209Z,1004
2017-03-31T06:21:19.854Z,1056
2017-03-31T06:22:20.222Z,1088
2017-03-31T06:23:20.231Z,1100
2017-03-31T06:24:19.924Z,1128
2017-03-31T06:25:20.444Z,1140
2017-03-31T06:26:20.243Z,1204
2017-03-31T06:27:19.943Z,1208
2017-03-31T06:28:20.260Z,1196
2017-03-31T06:29:21.587Z,1148
2017-03-31T06:30:20.272Z,1136
2017-03-31T06:31:19.914Z,1128
2017-03-31T06:32:20.362Z,1064
2017-03-31T06:33:20.338Z,1056
2017-03-31T06:34:20.296Z,1088
2017-03-31T06:35:20.301Z,1120
2017-03-31T06:36:19.734Z,1116
2017-03-31T06:37:20.323Z,1160
2017-03-31T06:38:20.281Z,1268
2017-03-31T06:39:20.327Z,1284
2017-03-31T06:40:21.675Z,1216
2017-03-31T06:41:20.295Z,1140
2017-03-31T06:42:20.348Z,1204
2017-03-31T06:43:20.350Z,1256
2017-03-31T06:44:20.310Z,1328
2017-03-31T06:45:20.331Z,1444
2017-03-31T06:46:20.423Z,1544
2017-03-31T06:47:20.325Z,1548
2017-03-31T06:48:20.381Z,1336
2017-03-31T06:49:20.390Z,1276
2017-03-31T06:50:20.087Z,1260
2017-03-31T06:51:21.550Z,1244
2017-03-31T06:52:20.437Z,1244
2017-03-31T06:53:20.101Z,1236
2017-03-31T06:54:20.369Z,1228
2017-03-31T06:55:20.378Z,1216
2017-03-31T06:56:20.438Z,1212
2017-03-31T06:57:20.391Z,1208
2017-03-31T06:58:20.283Z,1220
2017-03-31T06:59:19.931Z,1232
2017-03-31T07:00:20.507Z,1248
2017-03-31T07:01:20.102Z,1276
2017-03-31T07:02:21.776Z,1308
2017-03-31T07:03:33.006Z,1332
2017-03-31T07:04:20.533Z,1348
2017-03-31T07:05:20.174Z,1356
2017-03-31T07:06:20.547Z,1352
2017-03-31T07:07:20.135Z,1344
2017-03-31T07:08:20.511Z,1340
2017-03-31T07:09:20.613Z,1344
2017-03-31T07:10:20.209Z,1348
2017-03-31T07:11:20.162Z,1356
2017-03-31T07:12:20.583Z,1360
2017-03-31T07:13:21.746Z,1364
2017-03-31T07:14:21.101Z,1352
2017-03-31T07:15:20.606Z,1344
2017-03-31T07:16:20.510Z,1336
2017-03-31T07:17:20.252Z,1336
2017-03-31T07:18:20.570Z,1340
2017-03-31T07:19:20.534Z,1332
2017-03-31T07:20:20.534Z,1324
2017-03-31T07:21:20.550Z,1308
2017-03-31T07:22:22.220Z,1296
2017-03-31T07:23:20.605Z,1288
2017-03-31T07:24:21.543Z,1296
2017-03-31T07:25:20.259Z,1296
2017-03-31T07:26:20.309Z,1308
2017-03-31T07:27:20.624Z,1304
2017-03-31T07:28:20.267Z,1304
2017-03-31T07:29:20.638Z,1296
2017-03-31T07:30:20.646Z,1300
2017-03-31T07:31:20.758Z,1312
2017-03-31T07:32:20.343Z,1332
2017-03-31T07:33:20.687Z,1332
2017-03-31T07:34:20.355Z,1332
2017-03-31T07:35:21.959Z,1324
2017-03-31T07:36:20.060Z,1316
2017-03-31T07:37:20.689Z,1300
2017-03-31T07:38:20.070Z,1292
2017-03-31T07:39:20.707Z,1300
2017-03-31T07:40:20.659Z,1296
2017-03-31T07:41:20.765Z,1292
2017-03-31T07:42:20.715Z,1268
2017-03-31T07:43:20.679Z,1272
2017-03-31T07:44:20.731Z,1268
2017-03-31T07:45:20.687Z,1264
2017-03-31T07:46:22.370Z,1256
2017-03-31T07:47:20.808Z,1248
2017-03-31T07:48:20.900Z,1244
2017-03-31T07:49:20.768Z,1248
2017-03-31T07:50:20.409Z,1260
2017-03-31T07:51:20.832Z,1276
2017-03-31T07:52:20.784Z,1300
2017-03-31T07:53:20.776Z,1320
2017-03-31T07:54:20.536Z,1344
2017-03-31T07:55:20.805Z,1360
2017-03-31T07:56:20.447Z,1380
2017-03-31T07:57:22.393Z,1392
2017-03-31T07:58:20.773Z,1420
2017-03-31T07:59:20.566Z,1436
2017-03-31T08:00:20.836Z,1460
2017-03-31T08:01:20.797Z,1476
2017-03-31T08:02:20.536Z,1496
2017-03-31T08:03:33.497Z,1512
2017-03-31T08:04:21.460Z,1532
2017-03-31T08:05:20.815Z,1552
2017-03-31T08:06:20.960Z,1572
2017-03-31T08:07:20.828Z,1584
2017-03-31T08:08:20.938Z,1612
2017-03-31T08:09:20.889Z,1644
2017-03-31T08:10:20.854Z,1684
2017-03-31T08:11:20.902Z,1712
2017-03-31T08:12:20.910Z,1748
2017-03-31T08:13:20.608Z,1760
2017-03-31T08:14:20.929Z,1788
2017-03-31T08:15:21.350Z,1816
2017-03-31T08:16:20.940Z,1840
2017-03-31T08:17:21.043Z,1868
2017-03-31T08:18:21.001Z,1916
2017-03-31T08:19:20.645Z,1972
2017-03-31T08:20:20.964Z,2028
2017-03-31T08:21:20.713Z,2132
2017-03-31T08:22:20.928Z,2216
2017-03-31T08:23:21.079Z,2364
2017-03-31T08:24:20.725Z,2448
2017-03-31T08:25:20.685Z,2684
2017-03-31T08:26:22.202Z,3112
2017-03-31T08:27:21.007Z,3820
2017-03-31T08:28:21.300Z,7160
2017-03-31T08:29:21.020Z,8272
2017-03-31T08:30:20.675Z,9384
2017-03-31T08:31:21.090Z,10264
2017-03-31T08:32:20.681Z,11584
2017-03-31T08:33:20.686Z,12408
2017-03-31T08:34:21.055Z,12848
2017-03-31T08:35:21.019Z,11108
2017-03-31T08:36:20.447Z,9388
2017-03-31T08:37:21.831Z,9368
2017-03-31T08:38:21.034Z,10764
2017-03-31T08:39:21.293Z,9644
2017-03-31T08:40:21.102Z,8272
2017-03-31T08:41:21.173Z,7068
2017-03-31T08:42:21.118Z,8060
2017-03-31T08:43:21.061Z,10596
2017-03-31T08:44:21.129Z,12288
2017-03-31T08:45:21.203Z,13608
2017-03-31T08:46:21.097Z,7356
2017-03-31T08:47:21.155Z,6372
2017-03-31T08:48:21.655Z,3936
2017-03-31T08:49:20.860Z,3344
2017-03-31T08:50:21.478Z,3156
2017-03-31T08:51:20.878Z,3084
2017-03-31T08:52:23.169Z,3028
2017-03-31T08:53:21.205Z,3016
2017-03-31T08:54:20.536Z,2988
2017-03-31T08:55:20.646Z,2768
2017-03-31T08:56:20.914Z,2772
2017-03-31T08:57:20.866Z,2668
2017-03-31T08:58:21.437Z,2744
2017-03-31T08:59:22.296Z,2480
2017-03-31T09:00:20.997Z,2496
2017-03-31T09:01:21.846Z,2544
2017-03-31T09:02:21.317Z,2444
2017-03-31T09:03:21.232Z,2488
2017-03-31T09:04:21.279Z,2436
2017-03-31T09:05:20.665Z,2400
2017-03-31T09:06:20.984Z,2180
2017-03-31T09:07:21.305Z,2180
2017-03-31T09:08:21.002Z,2252
2017-03-31T09:09:21.340Z,2272
2017-03-31T09:10:22.097Z,2204
2017-03-31T09:11:21.285Z,2244
2017-03-31T09:12:21.938Z,2248
2017-03-31T09:13:21.397Z,2232
2017-03-31T09:14:21.240Z,2256
2017-03-31T09:15:21.364Z,2184
2017-03-31T09:16:21.051Z,2124
2017-03-31T09:17:21.476Z,2072
2017-03-31T09:18:21.114Z,2080
2017-03-31T09:19:22.287Z,2060
2017-03-31T09:20:21.132Z,2016
2017-03-31T09:21:21.089Z,2004
2017-03-31T09:22:21.093Z,2040
2017-03-31T09:23:22.520Z,2044
2017-03-31T09:24:21.372Z,1932
2017-03-31T09:25:21.676Z,1844
2017-03-31T09:26:21.440Z,1784
2017-03-31T09:27:21.128Z,1964
2017-03-31T09:28:21.141Z,2120
2017-03-31T09:29:21.405Z,2148
2017-03-31T09:30:21.463Z,1976
2017-03-31T09:31:21.760Z,2048
2017-03-31T09:32:21.525Z,2152
2017-03-31T09:33:21.433Z,2144
2017-03-31T09:34:22.582Z,2240
2017-03-31T09:35:21.504Z,2244
2017-03-31T09:36:21.841Z,2028
2017-03-31T09:37:21.562Z,2168
2017-03-31T09:38:21.161Z,2072
2017-03-31T09:39:21.478Z,2140
2017-03-31T09:40:21.326Z,2088
2017-03-31T09:41:21.534Z,2036
2017-03-31T09:42:21.496Z,2084
2017-03-31T09:43:21.550Z,2104
2017-03-31T09:44:21.557Z,1996
2017-03-31T09:45:22.819Z,2180
2017-03-31T09:46:21.265Z,2184
2017-03-31T09:47:21.796Z,2204
2017-03-31T09:48:21.730Z,2240
2017-03-31T09:49:21.543Z,2280
2017-03-31T09:50:21.287Z,2152
2017-03-31T09:51:21.345Z,2092
2017-03-31T09:52:21.614Z,2120
2017-03-31T09:53:21.573Z,2116
2017-03-31T09:54:21.264Z,2048
2017-03-31T09:55:21.635Z,1832
2017-03-31T09:56:23.074Z,1772
2017-03-31T09:57:21.650Z,1660
2017-03-31T09:58:22.209Z,1620
2017-03-31T09:59:21.351Z,1668
2017-03-31T10:00:21.358Z,1644
2017-03-31T10:01:21.678Z,1656
2017-03-31T10:02:21.524Z,1688
2017-03-31T10:03:35.898Z,1708
2017-03-31T10:04:21.439Z,1656
2017-03-31T10:05:21.654Z,1632
2017-03-31T10:06:21.666Z,1608
2017-03-31T10:07:23.446Z,1620
2017-03-31T10:08:21.459Z,1572
2017-03-31T10:09:22.580Z,1592
2017-03-31T10:10:21.374Z,1616
2017-03-31T10:11:21.484Z,1680
2017-03-31T10:12:21.756Z,1756
2017-03-31T10:13:21.708Z,1812
2017-03-31T10:14:21.404Z,1864
2017-03-31T10:15:21.722Z,1796
2017-03-31T10:16:21.780Z,1808
2017-03-31T10:17:21.836Z,1796
2017-03-31T10:18:21.751Z,1892
2017-03-31T10:19:21.537Z,1848
2017-03-31T10:20:22.811Z,1956
2017-03-31T10:21:21.902Z,1936
2017-03-31T10:22:21.509Z,1952
2017-03-31T10:23:21.524Z,1980
2017-03-31T10:24:21.838Z,2020
2017-03-31T10:25:21.530Z,2044
2017-03-31T10:26:20.862Z,2008
2017-03-31T10:27:22.344Z,1980
2017-03-31T10:28:21.870Z,1996
2017-03-31T10:29:21.611Z,1980
2017-03-31T10:30:21.826Z,1876
2017-03-31T10:31:21.316Z,1876
2017-03-31T10:32:21.841Z,1988
2017-03-31T10:33:23.498Z,1964
2017-03-31T10:34:21.902Z,1992
2017-03-31T10:35:21.864Z,1988
2017-03-31T10:36:21.302Z,1848
2017-03-31T10:37:21.716Z,1860
2017-03-31T10:38:22.586Z,2028
2017-03-31T10:39:21.893Z,2024
2017-03-31T10:40:21.944Z,2132
2017-03-31T10:41:21.589Z,2140
2017-03-31T10:42:21.960Z,2112
2017-03-31T10:43:21.605Z,2120
2017-03-31T10:44:21.996Z,2072
2017-03-31T10:45:21.721Z,2044
2017-03-31T10:46:21.682Z,2016
2017-03-31T10:47:22.144Z,1996
2017-03-31T10:48:21.689Z,1944
2017-03-31T10:49:22.567Z,1876
2017-03-31T10:50:21.652Z,1852
2017-03-31T10:51:21.986Z,1764
2017-03-31T10:52:22.038Z,1668
2017-03-31T10:53:22.143Z,1672
2017-03-31T10:54:21.736Z,1684
2017-03-31T10:55:22.097Z,1628
2017-03-31T10:56:22.056Z,1664
2017-03-31T10:57:21.767Z,1480
2017-03-31T10:58:21.392Z,1484
2017-03-31T10:59:21.458Z,1524
2017-03-31T11:00:22.643Z,1576
2017-03-31T11:01:22.049Z,1576
2017-03-31T11:02:22.401Z,1572
2017-03-31T11:03:24.306Z,1556
2017-03-31T11:04:21.797Z,1552
2017-03-31T11:05:22.119Z,1544
2017-03-31T11:06:21.766Z,1556
2017-03-31T11:07:22.137Z,1544
2017-03-31T11:08:22.238Z,1452
2017-03-31T11:09:22.157Z,1448
2017-03-31T11:10:21.844Z,1436
2017-03-31T11:11:21.849Z,1444
2017-03-31T11:12:21.860Z,1436
2017-03-31T11:13:22.821Z,1304
2017-03-31T11:14:22.186Z,1416
2017-03-31T11:15:22.191Z,1320
2017-03-31T11:16:22.245Z,1428
2017-03-31T11:17:22.192Z,1220
2017-03-31T11:18:22.160Z,1396
2017-03-31T11:19:21.904Z,1388
2017-03-31T11:20:22.178Z,1356
2017-03-31T11:21:22.183Z,1184
2017-03-31T11:22:23.297Z,1300
2017-03-31T11:23:21.931Z,1252
2017-03-31T11:24:23.101Z,1276
2017-03-31T11:25:22.561Z,1264
2017-03-31T11:26:22.346Z,1228
2017-03-31T11:27:22.230Z,1236
2017-03-31T11:28:22.333Z,1224
2017-03-31T11:29:22.238Z,1208
2017-03-31T11:30:22.319Z,1200
2017-03-31T11:31:21.989Z,1216
2017-03-31T11:32:22.256Z,1224
2017-03-31T11:33:23.337Z,1152
2017-03-31T11:34:21.745Z,1156
2017-03-31T11:35:23.182Z,1176
2017-03-31T11:36:22.633Z,1176
2017-03-31T11:37:22.491Z,1168
2017-03-31T11:38:23.149Z,1204
2017-03-31T11:39:22.090Z,1212
2017-03-31T11:40:22.052Z,1192
2017-03-31T11:41:22.005Z,1188
2017-03-31T11:42:22.064Z,1204
2017-03-31T11:43:22.021Z,1220
2017-03-31T11:44:22.891Z,1224
2017-03-31T11:45:22.483Z,1220
2017-03-31T11:46:22.279Z,1200
2017-03-31T11:47:22.152Z,1192
2017-03-31T11:48:22.104Z,1192
2017-03-31T11:49:22.112Z,1204
2017-03-31T11:50:21.814Z,1172
2017-03-31T11:51:22.494Z,1200
2017-03-31T11:52:22.451Z,1160
2017-03-31T11:53:22.403Z,1168
2017-03-31T11:54:22.194Z,1140
2017-03-31T11:55:22.985Z,1156
2017-03-31T11:56:22.261Z,1144
2017-03-31T11:57:22.354Z,1132
2017-03-31T11:58:22.492Z,1104
2017-03-31T11:59:22.439Z,1104
2017-03-31T12:00:22.240Z,1088
2017-03-31T12:01:22.442Z,1064
2017-03-31T12:02:22.474Z,1092
2017-03-31T12:03:22.218Z,1084
2017-03-31T12:04:21.859Z,1084
2017-03-31T12:05:22.533Z,1100
2017-03-31T12:06:23.232Z,1052
2017-03-31T12:07:23.085Z,988
2017-03-31T12:08:22.912Z,1012
2017-03-31T12:09:22.559Z,992
2017-03-31T12:10:22.205Z,980
2017-03-31T12:11:22.312Z,940
2017-03-31T12:12:22.269Z,932
2017-03-31T12:13:22.325Z,972
2017-03-31T12:14:22.655Z,920
2017-03-31T12:15:22.558Z,948
2017-03-31T12:16:22.300Z,940
2017-03-31T12:17:23.925Z,908
2017-03-31T12:18:22.262Z,924
2017-03-31T12:19:23.266Z,896
2017-03-31T12:20:22.635Z,884
2017-03-31T12:21:22.651Z,876
2017-03-31T12:22:22.699Z,900
2017-03-31T12:23:22.395Z,896
2017-03-31T12:24:22.617Z,888
2017-03-31T12:25:22.304Z,872
2017-03-31T12:26:22.699Z,852
2017-03-31T12:27:22.686Z,844
2017-03-31T12:28:24.314Z,820
2017-03-31T12:29:22.335Z,844
2017-03-31T12:30:23.708Z,824
2017-03-31T12:31:22.400Z,840
2017-03-31T12:32:22.355Z,816
2017-03-31T12:33:22.678Z,808
2017-03-31T12:34:22.509Z,812
2017-03-31T12:35:22.685Z,828
2017-03-31T12:36:22.145Z,804
2017-03-31T12:37:22.783Z,816
2017-03-31T12:38:22.461Z,808
2017-03-31T12:39:22.767Z,812
2017-03-31T12:40:22.722Z,812
2017-03-31T12:41:24.090Z,776
2017-03-31T12:42:22.423Z,756
2017-03-31T12:43:22.594Z,752
2017-03-31T12:44:22.543Z,764
2017-03-31T12:45:22.539Z,748
2017-03-31T12:46:22.502Z,728
2017-03-31T12:47:22.875Z,724
2017-03-31T12:48:22.828Z,728
2017-03-31T12:49:22.468Z,720
2017-03-31T12:50:23.389Z,728
2017-03-31T12:51:22.895Z,716
2017-03-31T12:52:22.851Z,716
2017-03-31T12:53:22.284Z,748
2017-03-31T12:54:23.924Z,760
2017-03-31T12:55:22.872Z,776
2017-03-31T12:56:22.878Z,792
2017-03-31T12:57:22.263Z,800
2017-03-31T12:58:22.896Z,796
2017-03-31T12:59:22.852Z,804
2017-03-31T13:00:22.866Z,812
2017-03-31T13:01:23.673Z,848
2017-03-31T13:02:22.353Z,856
2017-03-31T13:03:23.027Z,884
2017-03-31T13:04:22.897Z,860
2017-03-31T13:05:22.323Z,836
2017-03-31T13:06:22.949Z,820
2017-03-31T13:07:22.696Z,872
2017-03-31T13:08:22.914Z,896
2017-03-31T13:09:22.705Z,892
2017-03-31T13:10:22.817Z,868
2017-03-31T13:11:23.038Z,816
2017-03-31T13:12:23.843Z,848
2017-03-31T13:13:22.998Z,864
2017-03-31T13:14:22.961Z,872
2017-03-31T13:15:23.112Z,868
2017-03-31T13:16:23.023Z,872
2017-03-31T13:17:23.046Z,812
2017-03-31T13:18:23.151Z,816
2017-03-31T13:19:22.989Z,864
2017-03-31T13:20:22.685Z,872
2017-03-31T13:21:23.090Z,832
2017-03-31T13:22:22.749Z,780
2017-03-31T13:23:24.029Z,816
2017-03-31T13:24:22.715Z,788
2017-03-31T13:25:23.334Z,788
2017-03-31T13:26:22.412Z,760
2017-03-31T13:27:23.042Z,740
2017-03-31T13:28:22.839Z,760
2017-03-31T13:29:23.052Z,736
2017-03-31T13:30:23.163Z,736
2017-03-31T13:31:23.226Z,724
2017-03-31T13:32:22.815Z,764
2017-03-31T13:33:23.138Z,784
2017-03-31T13:34:24.490Z,784
2017-03-31T13:35:23.203Z,796
2017-03-31T13:36:23.364Z,828
2017-03-31T13:37:22.545Z,824
2017-03-31T13:38:23.414Z,804
2017-03-31T13:39:23.171Z,812
2017-03-31T13:40:23.129Z,812
2017-03-31T13:41:23.185Z,796
2017-03-31T13:42:22.949Z,776
2017-03-31T13:43:23.274Z,780
2017-03-31T13:44:22.628Z,812
2017-03-31T13:45:24.265Z,812
2017-03-31T13:46:23.267Z,816
2017-03-31T13:47:23.437Z,800
2017-03-31T13:48:23.019Z,800
2017-03-31T13:49:23.195Z,804
2017-03-31T13:50:23.251Z,808
2017-03-31T13:51:23.274Z,812
2017-03-31T13:52:22.896Z,816
2017-03-31T13:53:23.352Z,828
2017-03-31T13:54:23.320Z,808
2017-03-31T13:55:23.236Z,808
2017-03-31T13:56:24.548Z,812